createdAt,value
2022-12-27T00:01:10.135Z,2.77
2022-12-27T00:03:36.634Z,2.83
2022-12-27T00:06:06.801Z,2.79
2022-12-27T00:08:33.369Z,2.79
2022-12-27T00:11:04.571Z,2.81
2022-12-27T00:13:32.011Z,2.85
2022-12-27T00:16:02.876Z,2.83
2022-12-27T00:18:29.405Z,2.81
2022-12-27T00:20:59.944Z,2.87
2022-12-27T00:23:26.893Z,2.92
2022-12-27T00:25:59.864Z,2.88
2022-12-27T00:28:26.391Z,2.84
2022-12-27T00:30:56.223Z,2.85
2022-12-27T00:33:22.743Z,2.91
2022-12-27T00:35:49.316Z,2.80
2022-12-27T00:38:15.853Z,2.74
2022-12-27T00:40:42.583Z,2.72
2022-12-27T00:43:09.090Z,2.66
2022-12-27T00:45:35.688Z,2.56
2022-12-27T00:48:02.243Z,2.48
2022-12-27T00:50:28.872Z,2.46
2022-12-27T00:52:55.462Z,2.52
2022-12-27T00:55:21.998Z,2.34
2022-12-27T00:57:48.611Z,2.18
2022-12-27T01:00:15.520Z,2.18
2022-12-27T01:02:42.051Z,2.16
2022-12-27T01:05:08.860Z,2.12
2022-12-27T01:07:35.376Z,2.14
2022-12-27T01:10:01.940Z,2.17
2022-12-27T01:12:28.496Z,2.13
2022-12-27T01:14:55.067Z,2.10
2022-12-27T01:17:21.570Z,2.15
2022-12-27T01:19:48.073Z,2.20
2022-12-27T01:22:14.638Z,2.21
2022-12-27T01:24:41.211Z,2.23
2022-12-27T01:27:07.757Z,2.21
2022-12-27T01:29:34.374Z,2.18
2022-12-27T01:32:00.992Z,2.13
2022-12-27T01:34:27.577Z,2.16
2022-12-27T01:36:54.142Z,2.17
2022-12-27T01:39:20.670Z,2.15
2022-12-27T01:42:05.843Z,2.16
2022-12-27T01:44:43.871Z,2.23
2022-12-27T01:47:24.938Z,2.24
2022-12-27T01:49:51.469Z,2.18
2022-12-27T01:52:18.136Z,2.18
2022-12-27T01:54:44.818Z,2.12
2022-12-27T01:57:11.449Z,2.07
2022-12-27T01:59:38.018Z,2.06
2022-12-27T02:02:05.379Z,2.10
2022-12-27T02:04:32.253Z,2.14
2022-12-27T02:06:59.730Z,2.10
2022-12-27T02:09:49.011Z,2.02
2022-12-27T02:12:16.176Z,1.97
2022-12-27T02:14:44.659Z,1.93
2022-12-27T02:17:19.288Z,1.94
2022-12-27T02:19:48.629Z,1.83
2022-12-27T02:22:18.238Z,1.75
2022-12-27T02:24:55.265Z,1.89
2022-12-27T02:27:24.856Z,1.86
2022-12-27T02:30:10.272Z,1.73
2022-12-27T02:32:38.871Z,1.61
2022-12-27T02:35:34.979Z,1.47
2022-12-27T02:38:05.070Z,1.47
2022-12-27T02:40:51.481Z,1.45
2022-12-27T02:43:36.709Z,1.41
2022-12-27T02:46:22.241Z,1.16
2022-12-27T02:49:11.215Z,1.13
2022-12-27T02:52:02.304Z,1.02
2022-12-27T02:54:42.359Z,0.94
2022-12-27T02:57:27.402Z,0.89
2022-12-27T03:00:24.788Z,0.90
2022-12-27T03:03:15.809Z,0.96
2022-12-27T03:06:11.309Z,0.96
2022-12-27T03:08:46.574Z,0.99
2022-12-27T03:11:31.408Z,1.00
2022-12-27T03:14:37.006Z,1.03
2022-12-27T03:17:09.633Z,0.89
2022-12-27T03:20:01.908Z,0.83
2022-12-27T03:22:48.732Z,0.73
2022-12-27T03:25:29.277Z,0.74
2022-12-27T03:28:26.213Z,0.73
2022-12-27T03:31:16.024Z,0.74
2022-12-27T03:33:43.139Z,0.83
2022-12-27T03:36:34.370Z,0.72
2022-12-27T03:39:16.713Z,0.55
2022-12-27T03:42:06.318Z,0.52
2022-12-27T03:44:33.276Z,0.57
2022-12-27T03:47:03.193Z,0.56
2022-12-27T03:49:36.305Z,0.51
2022-12-27T03:52:02.830Z,0.50
2022-12-27T03:54:37.985Z,0.45
2022-12-27T03:57:06.634Z,0.47
2022-12-27T03:59:33.232Z,0.50
2022-12-27T04:02:00.086Z,0.38
2022-12-27T04:04:26.858Z,0.36
2022-12-27T04:06:53.474Z,0.41
2022-12-27T04:09:38.691Z,0.36
2022-12-27T04:12:23.902Z,0.21
2022-12-27T04:15:08.860Z,0.22
2022-12-27T04:17:53.720Z,0.23
2022-12-27T04:20:39.244Z,0.17
2022-12-27T04:23:24.162Z,0.15
2022-12-27T04:26:09.740Z,0.16
2022-12-27T04:28:54.554Z,0.18
2022-12-27T04:31:40.022Z,0.05
2022-12-27T04:34:24.875Z,0.01
2022-12-27T04:36:51.493Z,0.17
2022-12-27T04:39:18.026Z,0.09
2022-12-27T04:42:03.307Z,0.13
2022-12-27T04:44:48.528Z,0.57
2022-12-27T04:47:34.981Z,0.23
2022-12-27T04:50:20.517Z,0.14
2022-12-27T04:53:05.885Z,0.15
2022-12-27T04:55:32.393Z,0.02
2022-12-27T04:57:59.313Z,-0.05
2022-12-27T05:00:45.524Z,-0.07
2022-12-27T05:03:23.192Z,0.01
2022-12-27T05:05:51.299Z,0.06
2022-12-27T05:08:37.738Z,-0.20
2022-12-27T05:11:22.591Z,-0.22
2022-12-27T05:14:01.042Z,-0.15
2022-12-27T05:16:32.366Z,-0.14
2022-12-27T05:18:59.009Z,-0.27
2022-12-27T05:21:25.735Z,-0.13
2022-12-27T05:24:11.415Z,-0.18
2022-12-27T05:26:38.754Z,-0.29
2022-12-27T05:29:06.091Z,-0.25
2022-12-27T05:31:32.815Z,-0.44
2022-12-27T05:33:59.380Z,-0.50
2022-12-27T05:36:27.094Z,-0.42
2022-12-27T05:38:53.740Z,-0.47
2022-12-27T05:41:20.470Z,-0.48
2022-12-27T05:43:47.064Z,-0.45
2022-12-27T05:46:14.890Z,-0.32
2022-12-27T05:48:41.761Z,-0.32
2022-12-27T05:51:20.698Z,-0.14
2022-12-27T05:53:47.665Z,-0.19
2022-12-27T05:56:18.951Z,0.25
2022-12-27T05:58:45.572Z,-0.07
2022-12-27T06:01:14.540Z,0.03
2022-12-27T06:03:41.168Z,-0.05
2022-12-27T06:06:08.580Z,-0.08
2022-12-27T06:08:35.183Z,-0.21
2022-12-27T06:11:09.902Z,-0.26
2022-12-27T06:13:36.944Z,-0.38
2022-12-27T06:16:04.556Z,-0.30
2022-12-27T06:18:32.672Z,-0.29
2022-12-27T06:21:03.169Z,-0.38
2022-12-27T06:23:29.726Z,-0.31
2022-12-27T06:25:56.344Z,-0.45
2022-12-27T06:28:22.894Z,-0.44
2022-12-27T06:30:49.515Z,-0.51
2022-12-27T06:33:16.613Z,-0.57
2022-12-27T06:35:43.136Z,-0.52
2022-12-27T06:38:09.758Z,-0.50
2022-12-27T06:40:36.291Z,-0.52
2022-12-27T06:43:02.780Z,-0.48
2022-12-27T06:45:29.377Z,-0.49
2022-12-27T06:47:55.921Z,-0.46
2022-12-27T06:50:22.535Z,-0.51
2022-12-27T06:52:49.057Z,-0.31
2022-12-27T06:55:15.682Z,-0.25
2022-12-27T06:57:42.207Z,-0.35
2022-12-27T07:00:08.957Z,-0.45
2022-12-27T07:02:35.599Z,-0.24
2022-12-27T07:05:02.263Z,-0.43
2022-12-27T07:07:28.813Z,-0.44
2022-12-27T07:09:55.310Z,-0.14
2022-12-27T07:12:21.825Z,-0.16
2022-12-27T07:14:48.381Z,0.24
2022-12-27T07:17:14.901Z,-0.14
2022-12-27T07:19:41.414Z,-0.05
2022-12-27T07:22:07.938Z,0.22
2022-12-27T07:24:35.270Z,0.84
2022-12-27T07:27:05.311Z,1.12
2022-12-27T07:29:31.875Z,1.15
2022-12-27T07:31:58.454Z,1.47
2022-12-27T07:34:26.170Z,1.65
2022-12-27T07:36:52.730Z,1.83
2022-12-27T07:39:19.239Z,1.86
2022-12-27T07:41:45.878Z,2.00
2022-12-27T07:44:12.387Z,2.15
2022-12-27T07:46:40.066Z,2.17
2022-12-27T07:49:09.958Z,2.20
2022-12-27T07:51:40.378Z,2.19
2022-12-27T07:54:06.952Z,2.28
2022-12-27T07:56:33.492Z,2.44
2022-12-27T07:59:01.003Z,2.43
2022-12-27T08:01:28.863Z,2.62
2022-12-27T08:03:55.883Z,2.72
2022-12-27T08:06:23.949Z,2.92
2022-12-27T08:08:51.540Z,3.03
2022-12-27T08:11:18.185Z,3.07
2022-12-27T08:13:44.735Z,3.09
2022-12-27T08:16:22.315Z,3.14
2022-12-27T08:18:48.867Z,3.08
2022-12-27T08:21:15.846Z,3.28
2022-12-27T08:23:42.713Z,3.33
2022-12-27T08:26:09.323Z,3.72
2022-12-27T08:28:36.231Z,4.47
2022-12-27T08:31:05.520Z,5.31
2022-12-27T08:33:32.075Z,5.84
2022-12-27T08:35:58.753Z,5.96
2022-12-27T08:38:25.293Z,6.30
2022-12-27T08:40:51.871Z,6.44
2022-12-27T08:43:18.548Z,6.54
2022-12-27T08:45:45.154Z,6.48
2022-12-27T08:48:11.837Z,6.44
2022-12-27T08:50:38.481Z,6.36
2022-12-27T08:53:06.159Z,6.26
2022-12-27T08:55:33.374Z,6.32
2022-12-27T08:58:01.286Z,6.39
2022-12-27T09:00:28.420Z,6.39
2022-12-27T09:02:55.230Z,6.51
2022-12-27T09:05:24.016Z,6.68
2022-12-27T09:07:50.941Z,6.67
2022-12-27T09:10:17.943Z,6.74
2022-12-27T09:12:45.983Z,6.81
2022-12-27T09:15:12.901Z,6.92
2022-12-27T09:17:39.624Z,6.98
2022-12-27T09:20:06.483Z,7.00
2022-12-27T09:22:33.018Z,7.12
2022-12-27T09:24:59.637Z,7.18
2022-12-27T09:27:26.270Z,7.19
2022-12-27T09:29:52.826Z,7.17
2022-12-27T09:32:19.367Z,7.18
2022-12-27T09:34:46.108Z,7.21
2022-12-27T09:37:12.739Z,7.33
2022-12-27T09:39:39.327Z,7.30
2022-12-27T09:42:47.668Z,7.33
2022-12-27T09:45:04.528Z,7.45
2022-12-27T09:47:43.328Z,7.42
2022-12-27T09:50:19.338Z,7.42
2022-12-27T09:52:57.052Z,7.36
2022-12-27T09:55:30.015Z,7.34
2022-12-27T09:58:04.583Z,7.37
2022-12-27T10:00:35.299Z,7.31
2022-12-27T10:03:04.952Z,7.15
2022-12-27T10:05:33.830Z,7.20
2022-12-27T10:08:18.933Z,7.47
2022-12-27T10:11:03.981Z,7.34
2022-12-27T10:13:33.416Z,7.34
2022-12-27T10:16:18.339Z,7.14
2022-12-27T10:18:58.303Z,7.31
2022-12-27T10:21:26.257Z,7.37
2022-12-27T10:23:55.713Z,7.27
2022-12-27T10:26:22.598Z,7.23
2022-12-27T10:28:57.321Z,7.15
2022-12-27T10:31:25.140Z,7.10
2022-12-27T10:33:52.252Z,7.22
2022-12-27T10:36:29.413Z,7.26
2022-12-27T10:38:56.899Z,7.57
2022-12-27T10:41:36.364Z,7.23
2022-12-27T10:44:03.297Z,7.25
2022-12-27T10:46:33.318Z,6.89
2022-12-27T10:49:22.593Z,6.53
2022-12-27T10:51:50.068Z,6.74
2022-12-27T10:54:20.790Z,7.29
2022-12-27T10:56:47.702Z,7.80
2022-12-27T10:59:15.171Z,7.99
2022-12-27T11:01:42.038Z,8.25
2022-12-27T11:04:09.581Z,8.33
2022-12-27T11:06:38.858Z,8.25
2022-12-27T11:09:26.802Z,8.29
2022-12-27T11:12:16.202Z,8.33
2022-12-27T11:15:01.611Z,8.22
2022-12-27T11:17:33.059Z,8.24
2022-12-27T11:20:19.127Z,8.19
2022-12-27T11:22:50.991Z,8.21
2022-12-27T11:25:17.617Z,8.40
2022-12-27T11:27:46.821Z,8.35
2022-12-27T11:30:45.972Z,8.47
2022-12-27T11:33:19.614Z,8.39
2022-12-27T11:35:50.795Z,8.24
2022-12-27T11:38:25.256Z,8.06
2022-12-27T11:41:01.383Z,8.22
2022-12-27T11:43:30.629Z,8.14
2022-12-27T11:45:57.934Z,8.13
2022-12-27T11:48:29.293Z,7.98
2022-12-27T11:51:12.863Z,8.15
2022-12-27T11:53:42.215Z,8.45
2022-12-27T11:56:29.546Z,8.57
2022-12-27T11:58:56.093Z,8.66
2022-12-27T12:01:49.115Z,8.64
2022-12-27T12:04:35.851Z,8.56
2022-12-27T12:07:11.829Z,8.53
2022-12-27T12:09:47.291Z,8.64
2022-12-27T12:12:19.690Z,8.66
2022-12-27T12:14:46.261Z,8.62
2022-12-27T12:17:41.191Z,8.67
2022-12-27T12:20:08.097Z,8.84
2022-12-27T12:22:34.623Z,8.88
2022-12-27T12:25:19.957Z,8.82
2022-12-27T12:27:58.591Z,8.81
2022-12-27T12:30:27.459Z,8.74
2022-12-27T12:33:01.339Z,8.90
2022-12-27T12:35:44.134Z,8.89
2022-12-27T12:38:12.891Z,8.81
2022-12-27T12:40:39.421Z,8.96
2022-12-27T12:43:21.864Z,8.82
2022-12-27T12:46:00.457Z,8.72
2022-12-27T12:48:41.776Z,8.61
2022-12-27T12:51:24.971Z,8.57
2022-12-27T12:54:02.712Z,8.83
2022-12-27T12:56:43.398Z,8.77
2022-12-27T12:59:28.536Z,8.68
2022-12-27T13:02:18.227Z,8.74
2022-12-27T13:04:44.933Z,8.56
2022-12-27T13:07:21.812Z,8.55
2022-12-27T13:10:00.408Z,8.66
2022-12-27T13:12:52.874Z,8.62
2022-12-27T13:15:28.856Z,8.70
2022-12-27T13:18:01.392Z,8.69
2022-12-27T13:20:33.893Z,8.50
2022-12-27T13:23:09.264Z,8.50
2022-12-27T13:25:50.262Z,8.49
2022-12-27T13:28:49.332Z,8.32
2022-12-27T13:31:34.610Z,8.10
2022-12-27T13:34:19.953Z,8.16
2022-12-27T13:37:09.651Z,8.17
2022-12-27T13:39:41.831Z,8.05
2022-12-27T13:42:37.456Z,8.12
2022-12-27T13:45:18.744Z,7.92
2022-12-27T13:47:57.682Z,7.83
2022-12-27T13:50:39.418Z,8.05
2022-12-27T13:53:05.985Z,8.07
2022-12-27T13:55:38.005Z,7.76
2022-12-27T13:58:16.461Z,7.50
2022-12-27T14:01:01.772Z,7.36
2022-12-27T14:03:46.595Z,7.19
2022-12-27T14:06:31.943Z,7.08
2022-12-27T14:09:07.594Z,7.27
2022-12-27T14:11:44.305Z,7.18
2022-12-27T14:14:12.705Z,7.05
2022-12-27T14:17:11.570Z,7.06
2022-12-27T14:19:38.201Z,6.95
2022-12-27T14:22:07.534Z,6.94
2022-12-27T14:24:54.382Z,6.86
2022-12-27T14:27:32.946Z,6.71
2022-12-27T14:30:02.585Z,6.75
2022-12-27T14:32:47.651Z,6.76
2022-12-27T14:35:33.493Z,6.61
2022-12-27T14:38:23.103Z,6.46
2022-12-27T14:40:58.897Z,6.39
2022-12-27T14:43:25.475Z,6.58
2022-12-27T14:45:58.260Z,6.50
2022-12-27T14:48:28.859Z,6.41
2022-12-27T14:51:01.427Z,6.89
2022-12-27T14:53:27.993Z,6.54
2022-12-27T14:56:00.743Z,6.27
2022-12-27T14:58:27.307Z,6.09
2022-12-27T15:00:53.889Z,5.93
2022-12-27T15:03:41.364Z,5.76
2022-12-27T15:06:14.333Z,5.66
2022-12-27T15:08:49.823Z,5.50
2022-12-27T15:11:19.378Z,5.40
2022-12-27T15:13:54.873Z,5.30
2022-12-27T15:16:34.358Z,5.18
2022-12-27T15:19:10.089Z,5.46
2022-12-27T15:21:41.445Z,5.37
2022-12-27T15:24:11.528Z,5.30
2022-12-27T15:26:51.483Z,5.13
2022-12-27T15:29:21.101Z,5.11
2022-12-27T15:31:57.347Z,5.10
2022-12-27T15:34:40.028Z,4.97
2022-12-27T15:37:07.088Z,4.72
2022-12-27T15:39:33.613Z,4.64
2022-12-27T15:42:36.314Z,4.53
2022-12-27T15:45:22.877Z,4.28
2022-12-27T15:48:08.016Z,4.22
2022-12-27T15:50:34.503Z,4.18
2022-12-27T15:53:07.385Z,4.21
2022-12-27T15:55:52.504Z,4.44
2022-12-27T15:58:19.054Z,4.43
2022-12-27T16:00:46.453Z,4.31
2022-12-27T16:03:28.326Z,4.16
2022-12-27T16:05:55.211Z,4.11
2022-12-27T16:08:26.672Z,4.03
2022-12-27T16:10:54.048Z,3.85
2022-12-27T16:13:20.818Z,3.84
2022-12-27T16:15:52.213Z,3.87
2022-12-27T16:18:18.955Z,3.83
2022-12-27T16:21:02.733Z,3.74
2022-12-27T16:24:01.923Z,3.73
2022-12-27T16:26:30.336Z,3.71
2022-12-27T16:29:01.893Z,3.63
2022-12-27T16:31:29.931Z,3.58
2022-12-27T16:33:58.111Z,3.57
2022-12-27T16:36:27.658Z,3.53
2022-12-27T16:39:12.305Z,3.51
2022-12-27T16:41:54.260Z,3.46
2022-12-27T16:44:24.054Z,3.57
2022-12-27T16:46:56.760Z,3.57
2022-12-27T16:49:26.368Z,3.59
2022-12-27T16:52:07.226Z,3.48
2022-12-27T16:54:36.906Z,3.40
2022-12-27T16:57:36.012Z,3.40
2022-12-27T17:00:05.680Z,3.39
2022-12-27T17:02:32.578Z,3.32
2022-12-27T17:05:01.025Z,3.22
2022-12-27T17:07:47.013Z,3.09
2022-12-27T17:10:25.789Z,3.05
2022-12-27T17:12:54.017Z,3.00
2022-12-27T17:15:21.144Z,2.92
2022-12-27T17:17:50.669Z,2.81
2022-12-27T17:20:18.468Z,2.78
2022-12-27T17:22:45.215Z,2.72
2022-12-27T17:25:16.185Z,2.59
2022-12-27T17:27:51.469Z,2.51
2022-12-27T17:30:21.802Z,2.46
2022-12-27T17:32:54.262Z,2.50
2022-12-27T17:35:34.744Z,2.49
2022-12-27T17:38:01.273Z,2.37
2022-12-27T17:40:27.808Z,2.28
2022-12-27T17:43:19.593Z,2.24
2022-12-27T17:45:49.102Z,2.14
2022-12-27T17:48:15.699Z,2.09
2022-12-27T17:50:44.434Z,1.96
2022-12-27T17:53:29.586Z,1.83
2022-12-27T17:56:19.313Z,1.81
2022-12-27T17:58:46.200Z,1.83
2022-12-27T18:01:13.239Z,1.80
2022-12-27T18:03:42.994Z,1.82
2022-12-27T18:06:09.735Z,1.83
2022-12-27T18:08:37.039Z,1.81
2022-12-27T18:11:05.357Z,1.78
2022-12-27T18:13:33.652Z,1.78
2022-12-27T18:16:04.546Z,1.75
2022-12-27T18:18:33.302Z,1.71
2022-12-27T18:21:04.721Z,1.63
2022-12-27T18:23:40.774Z,1.54
2022-12-27T18:26:13.411Z,1.52
2022-12-27T18:28:40.978Z,1.51
2022-12-27T18:31:26.400Z,1.44
2022-12-27T18:33:58.110Z,1.42
2022-12-27T18:36:29.357Z,1.42
2022-12-27T18:38:58.619Z,1.37
2022-12-27T18:41:26.019Z,1.36
2022-12-27T18:43:57.834Z,1.32
2022-12-27T18:46:32.476Z,1.33
2022-12-27T18:48:59.705Z,1.33
2022-12-27T18:51:37.140Z,1.24
2022-12-27T18:54:21.068Z,1.11
2022-12-27T18:56:50.572Z,1.09
2022-12-27T18:59:28.884Z,1.14
2022-12-27T19:02:02.893Z,1.11
2022-12-27T19:04:30.981Z,1.10
2022-12-27T19:07:09.236Z,1.05
2022-12-27T19:09:42.935Z,0.98
2022-12-27T19:12:21.410Z,0.91
2022-12-27T19:14:48.057Z,0.87
2022-12-27T19:17:22.897Z,0.87
2022-12-27T19:19:51.481Z,0.91
2022-12-27T19:22:33.788Z,0.89
2022-12-27T19:25:01.793Z,0.77
2022-12-27T19:27:28.415Z,0.74
2022-12-27T19:29:54.973Z,0.64
2022-12-27T19:32:23.070Z,0.53
2022-12-27T19:34:51.700Z,0.50
2022-12-27T19:37:19.222Z,0.48
2022-12-27T19:39:46.898Z,0.44
2022-12-27T19:42:21.611Z,0.46
2022-12-27T19:44:48.858Z,0.44
2022-12-27T19:47:15.826Z,0.44
2022-12-27T19:49:44.232Z,0.45
2022-12-27T19:52:15.788Z,0.47
2022-12-27T19:54:42.715Z,0.51
2022-12-27T19:57:11.777Z,0.49
2022-12-27T19:59:38.819Z,0.47
2022-12-27T20:02:05.748Z,0.44
2022-12-27T20:04:32.987Z,0.34
2022-12-27T20:07:00.237Z,0.30
2022-12-27T20:09:26.828Z,0.30
2022-12-27T20:11:53.418Z,0.30
2022-12-27T20:14:20.024Z,0.34
2022-12-27T20:16:47.222Z,0.36
2022-12-27T20:19:16.425Z,0.39
2022-12-27T20:21:43.046Z,0.38
2022-12-27T20:24:12.978Z,0.37
2022-12-27T20:26:39.661Z,0.44
2022-12-27T20:29:06.256Z,0.37
2022-12-27T20:31:33.044Z,0.33
2022-12-27T20:33:59.657Z,0.32
2022-12-27T20:36:26.303Z,0.32
2022-12-27T20:38:52.975Z,0.35
2022-12-27T20:41:20.461Z,0.34
2022-12-27T20:43:47.263Z,0.36
2022-12-27T20:46:15.271Z,0.33
2022-12-27T20:48:43.087Z,0.37
2022-12-27T20:51:11.235Z,0.30
2022-12-27T20:53:37.826Z,0.28
2022-12-27T20:56:05.143Z,0.28
2022-12-27T20:58:32.574Z,0.26
2022-12-27T21:01:05.823Z,0.24
2022-12-27T21:03:32.477Z,0.26
2022-12-27T21:06:04.256Z,0.28
2022-12-27T21:08:32.211Z,0.30
2022-12-27T21:11:04.055Z,0.32
2022-12-27T21:13:33.389Z,0.32
2022-12-27T21:15:59.972Z,0.31
2022-12-27T21:18:26.537Z,0.31
2022-12-27T21:20:53.051Z,0.26
2022-12-27T21:23:19.652Z,0.26
2022-12-27T21:25:46.173Z,0.23
2022-12-27T21:28:12.741Z,0.23
2022-12-27T21:30:39.290Z,0.21
2022-12-27T21:33:05.906Z,0.21
2022-12-27T21:35:32.464Z,0.21
2022-12-27T21:37:59.031Z,0.19
2022-12-27T21:40:25.547Z,0.17
2022-12-27T21:42:53.547Z,0.16
2022-12-27T21:45:20.157Z,0.19
2022-12-27T21:47:46.727Z,0.19
2022-12-27T21:50:13.347Z,0.15
2022-12-27T21:52:39.914Z,0.14
2022-12-27T21:55:06.579Z,0.08
2022-12-27T21:57:33.105Z,0.04
2022-12-27T21:59:59.775Z,0.08
2022-12-27T22:02:26.542Z,0.11
2022-12-27T22:04:53.304Z,0.11
2022-12-27T22:07:19.909Z,0.11
2022-12-27T22:09:46.453Z,0.11
2022-12-27T22:12:13.025Z,0.10
2022-12-27T22:14:39.769Z,0.14
2022-12-27T22:17:06.450Z,0.13
2022-12-27T22:19:33.074Z,0.11
2022-12-27T22:21:59.670Z,0.11
2022-12-27T22:24:26.236Z,0.10
2022-12-27T22:26:52.845Z,0.07
2022-12-27T22:29:19.599Z,0.05
2022-12-27T22:31:46.677Z,0.03
2022-12-27T22:34:13.305Z,0.01
2022-12-27T22:36:39.896Z,0.02
2022-12-27T22:39:06.535Z,0.04
2022-12-27T22:41:34.115Z,0.01
2022-12-27T22:44:05.334Z,0.03
2022-12-27T22:46:58.591Z,0.01
2022-12-27T22:49:19.154Z,0.02
2022-12-27T22:51:45.888Z,-0.01
2022-12-27T22:54:12.379Z,-0.02
2022-12-27T22:56:40.485Z,-0.03
2022-12-27T22:59:07.656Z,0.01
2022-12-27T23:01:34.988Z,0.00
2022-12-27T23:04:02.624Z,-0.04
2022-12-27T23:06:30.172Z,-0.09
2022-12-27T23:08:56.735Z,-0.10
2022-12-27T23:11:25.528Z,-0.12
2022-12-27T23:13:56.615Z,-0.11
2022-12-27T23:16:23.149Z,-0.11
2022-12-27T23:18:49.922Z,-0.13
2022-12-27T23:21:21.523Z,-0.17
2022-12-27T23:23:51.414Z,-0.20
2022-12-27T23:26:20.308Z,-0.24
2022-12-27T23:28:47.221Z,-0.32
2022-12-27T23:31:14.348Z,-0.35
2022-12-27T23:33:41.734Z,-0.40
2022-12-27T23:36:08.805Z,-0.43
2022-12-27T23:38:35.367Z,-0.44
2022-12-27T23:41:03.556Z,-0.48
2022-12-27T23:43:51.547Z,-0.54
2022-12-27T23:46:20.039Z,-0.55
2022-12-27T23:48:46.800Z,-0.59
2022-12-27T23:51:14.091Z,-0.63
2022-12-27T23:53:41.122Z,-0.66
2022-12-27T23:56:10.105Z,-0.70
2022-12-27T23:58:36.606Z,-0.67
